Time;durP1;ratioP1;P1;durP2;ratioP2;P2;SDS_P1;SDS_P2;PMS_P1;PMS_P2;Temp;Humidity;BMP_temperature;BMP_pressure;BME280_temperature;BME280_humidity;BME280_pressure;Samples;Min_cycle;Max_cycle;Signal;HPM_P1;HPM_P2
2023/01/08 00:00:52;;;;;;;5.97;5.37;;;10.00;99.90;;;;;;5049019;28;20433;-53
2023/01/08 00:03:19;;;;;;;6.40;4.60;;;10.30;99.90;;;;;;5049298;28;20406;-54
2023/01/08 00:05:45;;;;;;;7.83;6.00;;;10.10;99.90;;;;;;5048637;28;20669;-55
2023/01/08 00:08:12;;;;;;;6.67;4.90;;;10.00;99.90;;;;;;5049425;28;20898;-54
2023/01/08 00:10:39;;;;;;;5.90;5.20;;;10.00;99.90;;;;;;5048706;28;20409;-54
2023/01/08 00:13:07;;;;;;;5.17;4.67;;;9.80;99.90;;;;;;5049339;28;20431;-54
2023/01/08 00:15:34;;;;;;;5.90;5.40;;;10.10;99.90;;;;;;5049335;28;20745;-53
2023/01/08 00:18:01;;;;;;;6.53;5.70;;;10.00;99.90;;;;;;5049399;28;20416;-54
2023/01/08 00:20:29;;;;;;;5.80;5.13;;;10.20;99.90;;;;;;5048655;28;20422;-54
2023/01/08 00:22:55;;;;;;;8.27;5.10;;;10.00;99.90;;;;;;5049170;28;20450;-54
2023/01/08 00:25:22;;;;;;;6.07;5.23;;;9.70;99.90;;;;;;5049187;28;20990;-54
2023/01/08 00:27:48;;;;;;;6.37;5.03;;;10.00;99.90;;;;;;5049195;28;20543;-53
2023/01/08 00:30:16;;;;;;;5.60;5.03;;;9.80;99.90;;;;;;5048421;28;20921;-53
2023/01/08 00:32:43;;;;;;;6.03;4.93;;;9.80;99.90;;;;;;5049232;28;20431;-53
2023/01/08 00:35:10;;;;;;;6.70;5.47;;;9.70;99.90;;;;;;5049148;28;20438;-53
2023/01/08 00:37:36;;;;;;;9.57;5.40;;;9.90;99.90;;;;;;5049564;28;20414;-55
2023/01/08 00:40:03;;;;;;;5.30;4.80;;;10.30;99.90;;;;;;5048366;28;20405;-55
2023/01/08 00:42:30;;;;;;;5.17;4.67;;;9.70;99.90;;;;;;5049006;28;20462;-55
2023/01/08 00:44:57;;;;;;;5.73;5.00;;;9.70;99.90;;;;;;5048986;28;20505;-54
2023/01/08 00:47:24;;;;;;;6.30;5.70;;;9.50;99.90;;;;;;5048498;28;20410;-56
2023/01/08 00:49:51;;;;;;;6.70;5.60;;;9.70;99.90;;;;;;5048297;28;20776;-54
2023/01/08 00:52:18;;;;;;;7.30;6.60;;;10.10;99.90;;;;;;5048801;28;20429;-55
2023/01/08 00:54:44;;;;;;;5.50;5.00;;;9.70;99.90;;;;;;5049095;28;20438;-56
2023/01/08 00:57:11;;;;;;;5.53;4.90;;;9.10;99.90;;;;;;5048776;28;20431;-53
2023/01/08 00:59:37;;;;;;;7.03;5.33;;;9.40;99.90;;;;;;5048320;28;20438;-55
2023/01/08 01:02:04;;;;;;;6.20;5.60;;;9.50;99.90;;;;;;5048755;28;20458;-55
2023/01/08 01:04:32;;;;;;;6.87;5.60;;;9.50;99.90;;;;;;5048194;28;20478;-56
2023/01/08 01:06:58;;;;;;;5.90;5.37;;;9.30;99.90;;;;;;5048722;28;20475;-56
2023/01/08 01:09:25;;;;;;;7.40;5.73;;;9.60;99.90;;;;;;5048065;28;20434;-54
2023/01/08 01:11:52;;;;;;;7.10;6.40;;;9.90;99.90;;;;;;5048495;28;20425;-54
2023/01/08 01:14:18;;;;;;;5.60;5.10;;;9.10;99.90;;;;;;5048446;28;20487;-55
2023/01/08 01:16:47;;;;;;;6.20;5.50;;;9.30;99.90;;;;;;5050027;28;20897;-55
2023/01/08 01:19:14;;;;;;;7.83;6.10;;;9.40;99.90;;;;;;5051538;28;20431;-55
2023/01/08 01:21:42;;;;;;;6.07;5.50;;;9.40;99.90;;;;;;5052051;28;20432;-55
2023/01/08 01:24:12;;;;;;;6.30;5.70;;;8.70;99.90;;;;;;5052368;28;20478;-55
2023/01/08 01:26:39;;;;;;;6.70;5.97;;;9.20;99.90;;;;;;5051990;28;20416;-56
2023/01/08 01:29:06;;;;;;;7.50;5.40;;;9.20;99.90;;;;;;5051344;28;20460;-56
2023/01/08 01:31:33;;;;;;;6.87;6.27;;;9.40;99.90;;;;;;5051735;28;20985;-55
2023/01/08 01:33:59;;;;;;;7.47;5.97;;;9.10;99.90;;;;;;5051635;28;21046;-55
2023/01/08 01:36:26;;;;;;;6.80;5.87;;;9.50;99.90;;;;;;5052187;28;20409;-55
2023/01/08 01:38:57;;;;;;;7.10;5.93;;;9.10;99.90;;;;;;5051252;28;20442;-56
2023/01/08 01:41:26;;;;;;;7.37;6.40;;;9.30;99.90;;;;;;5051933;28;20799;-55
2023/01/08 01:43:53;;;;;;;5.77;5.17;;;8.90;99.90;;;;;;5051798;27;20446;-55
2023/01/08 01:46:27;;;;;;;11.33;7.10;;;9.30;99.90;;;;;;5051638;28;20462;-54
2023/01/08 01:48:58;;;;;;;7.43;5.93;;;9.10;99.90;;;;;;5050976;28;20431;-54
2023/01/08 01:51:30;;;;;;;7.27;6.57;;;9.40;99.90;;;;;;5051732;28;20822;-55
2023/01/08 01:53:59;;;;;;;6.50;5.80;;;9.00;99.90;;;;;;5051618;28;20405;-54
2023/01/08 01:56:26;;;;;;;9.03;6.53;;;9.10;99.90;;;;;;5051599;28;20430;-56
2023/01/08 01:58:53;;;;;;;7.10;6.40;;;8.60;99.90;;;;;;5050957;28;20446;-55
2023/01/08 02:01:20;;;;;;;8.50;6.10;;;8.40;99.90;;;;;;5051437;28;20455;-56
2023/01/08 02:03:47;;;;;;;7.40;6.40;;;8.80;99.90;;;;;;5049860;28;20799;-55
2023/01/08 02:06:25;;;;;;;8.63;6.77;;;8.90;99.90;;;;;;5051701;28;20402;-56
2023/01/08 02:09:01;;;;;;;8.83;6.37;;;8.90;99.90;;;;;;5050791;27;20413;-54
2023/01/08 02:11:35;;;;;;;7.70;6.73;;;8.90;99.90;;;;;;5051385;28;20457;-56
2023/01/08 02:14:06;;;;;;;7.70;7.00;;;8.40;99.90;;;;;;5049737;28;20476;-56
2023/01/08 02:16:56;;;;;;;9.23;7.27;;;8.70;99.90;;;;;;5051142;28;20409;-54
2023/01/08 02:19:36;;;;;;;8.90;7.10;;;8.80;99.90;;;;;;5050583;27;20446;-56
2023/01/08 02:22:14;;;;;;;8.33;7.50;;;8.90;99.90;;;;;;5051247;28;20455;-54
2023/01/08 02:24:55;;;;;;;9.30;7.27;;;8.90;99.90;;;;;;5050838;28;20477;-54
2023/01/08 02:27:26;;;;;;;8.10;7.13;;;8.40;99.90;;;;;;5050389;28;20435;-55
2023/01/08 02:29:54;;;;;;;8.70;7.80;;;8.50;99.90;;;;;;5050310;28;20452;-56
2023/01/08 02:32:25;;;;;;;7.80;6.87;;;8.50;99.90;;;;;;5050853;28;20449;-55
2023/01/08 02:34:52;;;;;;;9.03;7.70;;;8.80;99.90;;;;;;5050946;28;20406;-55
2023/01/08 02:37:19;;;;;;;9.03;7.90;;;8.70;99.90;;;;;;5050935;28;20405;-56
2023/01/08 02:40:16;;;;;;;8.80;7.77;;;8.50;99.90;;;;;;5050307;28;20432;-54
2023/01/08 02:42:51;;;;;;;8.87;7.00;;;8.70;99.90;;;;;;5050926;28;20870;-56
2023/01/08 02:45:32;;;;;;;8.60;7.53;;;8.40;99.90;;;;;;5050434;28;20499;-53
2023/01/08 02:48:07;;;;;;;8.77;7.90;;;8.70;99.90;;;;;;5051206;28;20824;-56
2023/01/08 02:50:38;;;;;;;9.03;7.50;;;7.90;99.90;;;;;;5050229;28;20420;-55
2023/01/08 02:53:11;;;;;;;8.33;7.50;;;8.30;99.90;;;;;;5050877;28;20508;-56
2023/01/08 02:55:41;;;;;;;8.77;7.97;;;8.50;99.90;;;;;;5050802;28;20434;-55
2023/01/08 02:58:10;;;;;;;8.80;7.60;;;8.60;99.90;;;;;;5050730;28;20507;-55
2023/01/08 03:00:38;;;;;;;7.63;6.93;;;8.10;99.90;;;;;;5049804;28;20414;-55
2023/01/08 03:03:09;;;;;;;8.90;8.10;;;8.50;99.90;;;;;;5050483;28;20421;-56
2023/01/08 03:05:39;;;;;;;9.37;7.17;;;8.30;99.90;;;;;;5050808;28;20830;-56
2023/01/08 03:08:06;;;;;;;11.03;7.70;;;8.40;99.90;;;;;;5050578;27;20431;-53
2023/01/08 03:10:37;;;;;;;9.93;8.43;;;8.20;99.90;;;;;;5049645;28;20405;-56
2023/01/08 03:13:08;;;;;;;8.93;8.03;;;8.30;99.90;;;;;;5050354;28;20431;-54
2023/01/08 03:15:43;;;;;;;10.40;7.60;;;8.30;99.90;;;;;;5050632;28;20435;-56
2023/01/08 03:18:13;;;;;;;8.90;8.00;;;8.40;99.90;;;;;;5050124;28;20408;-56
2023/01/08 03:20:39;;;;;;;8.93;7.97;;;8.30;99.90;;;;;;5049578;28;20798;-56
2023/01/08 03:23:09;;;;;;;8.63;7.60;;;7.60;99.90;;;;;;5050417;28;20943;-56
2023/01/08 03:25:39;;;;;;;9.40;8.37;;;7.90;99.90;;;;;;5050044;28;20460;-55
2023/01/08 03:28:11;;;;;;;9.37;8.47;;;8.40;99.90;;;;;;5049094;28;20437;-55
2023/01/08 03:30:42;;;;;;;8.93;7.63;;;8.20;99.90;;;;;;5049572;27;20796;-56
2023/01/08 03:33:10;;;;;;;10.43;7.90;;;8.30;99.90;;;;;;5050304;28;20438;-56
2023/01/08 03:35:40;;;;;;;10.40;8.70;;;8.30;99.90;;;;;;5050197;28;20441;-55
2023/01/08 03:38:11;;;;;;;9.33;7.90;;;8.10;99.90;;;;;;5050417;28;20776;-53
2023/01/08 03:40:43;;;;;;;10.40;7.83;;;8.10;99.90;;;;;;5049309;28;20430;-55
2023/01/08 03:43:10;;;;;;;8.97;8.07;;;8.40;99.90;;;;;;5049955;28;20417;-56
2023/01/08 03:45:42;;;;;;;9.53;8.40;;;8.10;99.90;;;;;;5049922;28;20640;-56
2023/01/08 03:48:09;;;;;;;7.90;6.87;;;8.00;99.90;;;;;;5049852;28;20401;-55
2023/01/08 03:50:36;;;;;;;9.30;7.87;;;8.30;99.90;;;;;;5049217;28;20413;-55
2023/01/08 03:53:02;;;;;;;9.90;8.67;;;8.00;99.90;;;;;;5049830;28;20435;-56
2023/01/08 03:55:29;;;;;;;9.30;8.20;;;7.50;99.90;;;;;;5049923;28;20745;-54
2023/01/08 03:57:56;;;;;;;8.80;7.87;;;8.10;99.90;;;;;;5049852;27;20778;-54
2023/01/08 04:00:22;;;;;;;9.37;8.23;;;7.90;99.90;;;;;;5049092;28;20416;-55
2023/01/08 04:02:50;;;;;;;8.70;7.80;;;7.90;99.90;;;;;;5048558;28;20437;-56
2023/01/08 04:05:17;;;;;;;8.80;7.90;;;8.40;99.90;;;;;;5049924;28;20455;-56
2023/01/08 04:07:43;;;;;;;11.87;9.50;;;7.70;99.90;;;;;;5049734;28;20405;-55
2023/01/08 04:10:10;;;;;;;12.83;9.40;;;7.80;99.90;;;;;;5049218;28;20491;-56
2023/01/08 04:12:36;;;;;;;9.30;8.37;;;8.10;99.90;;;;;;5049837;28;20461;-55
2023/01/08 04:15:03;;;;;;;12.33;9.40;;;7.90;99.90;;;;;;5049530;28;20408;-55
2023/01/08 04:17:30;;;;;;;9.47;8.47;;;7.90;99.90;;;;;;5049516;28;20487;-54
2023/01/08 04:19:58;;;;;;;9.70;8.70;;;8.10;99.90;;;;;;5048968;27;20537;-54
2023/01/08 04:22:25;;;;;;;8.87;7.97;;;8.10;99.90;;;;;;5049580;28;20466;-54
2023/01/08 04:24:51;;;;;;;8.77;7.90;;;8.00;99.90;;;;;;5049229;28;20986;-56
2023/01/08 04:27:18;;;;;;;10.50;9.33;;;7.90;99.90;;;;;;5049441;28;20429;-55
2023/01/08 04:29:44;;;;;;;9.87;8.97;;;8.10;99.90;;;;;;5048424;28;20417;-56
2023/01/08 04:32:11;;;;;;;9.30;8.40;;;8.20;99.90;;;;;;5049143;28;20463;-55
2023/01/08 04:34:38;;;;;;;9.70;8.70;;;8.10;99.90;;;;;;5049275;28;20798;-54
2023/01/08 04:37:06;;;;;;;10.10;8.20;;;7.90;99.90;;;;;;5049283;28;20453;-54
2023/01/08 04:39:32;;;;;;;10.70;9.60;;;7.90;99.90;;;;;;5048535;28;20583;-54
2023/01/08 04:41:59;;;;;;;9.80;8.80;;;7.80;99.90;;;;;;5047638;28;20462;-55
2023/01/08 04:44:26;;;;;;;10.43;8.40;;;7.90;99.90;;;;;;5049100;28;20915;-56
2023/01/08 04:46:52;;;;;;;10.83;9.73;;;7.90;99.90;;;;;;5048879;28;20509;-55
2023/01/08 04:49:19;;;;;;;10.37;8.13;;;7.70;99.90;;;;;;5048365;28;20406;-55
2023/01/08 04:51:46;;;;;;;9.10;8.20;;;7.70;99.90;;;;;;5048288;28;20558;-55
2023/01/08 04:54:14;;;;;;;11.43;10.03;;;8.00;99.90;;;;;;5048966;28;20423;-53
2023/01/08 04:56:41;;;;;;;10.90;9.10;;;8.10;99.90;;;;;;5048775;28;20916;-53
2023/01/08 04:59:07;;;;;;;9.87;8.43;;;7.90;99.90;;;;;;5048465;28;20432;-55
2023/01/08 05:01:34;;;;;;;9.67;8.43;;;7.90;99.90;;;;;;5048329;28;20433;-56
2023/01/08 05:04:04;;;;;;;12.00;10.17;;;7.80;99.90;;;;;;5048731;28;20409;-53
2023/01/08 05:06:31;;;;;;;11.77;9.67;;;8.00;99.90;;;;;;5048751;28;20489;-56
2023/01/08 05:08:58;;;;;;;10.50;8.97;;;7.90;99.90;;;;;;5048101;28;20837;-54
2023/01/08 05:11:26;;;;;;;11.53;8.23;;;8.00;99.90;;;;;;5048743;28;20472;-56
2023/01/08 05:13:53;;;;;;;16.40;12.40;;;7.80;99.90;;;;;;5048879;28;20401;-55
2023/01/08 05:16:20;;;;;;;9.67;8.43;;;7.90;99.90;;;;;;5048744;28;20435;-55
2023/01/08 05:18:47;;;;;;;10.50;8.07;;;7.80;99.90;;;;;;5048056;28;20846;-55
2023/01/08 05:21:14;;;;;;;10.17;8.37;;;8.10;99.90;;;;;;5048561;28;20490;-55
2023/01/08 05:23:44;;;;;;;9.23;8.10;;;8.00;99.90;;;;;;5048595;28;20427;-56
2023/01/08 05:26:10;;;;;;;9.37;8.33;;;8.00;99.90;;;;;;5048384;28;20486;-55
2023/01/08 05:28:38;;;;;;;11.47;9.03;;;7.90;99.90;;;;;;5047837;28;20749;-55
2023/01/08 05:31:05;;;;;;;8.97;8.07;;;8.00;99.90;;;;;;5048530;28;20828;-56
2023/01/08 05:33:32;;;;;;;9.60;8.50;;;8.10;99.90;;;;;;5048428;28;20788;-53
2023/01/08 05:35:58;;;;;;;10.20;9.07;;;7.90;99.90;;;;;;5048512;28;20465;-55
2023/01/08 05:38:25;;;;;;;10.43;8.40;;;7.80;99.90;;;;;;5048012;28;20431;-56
2023/01/08 05:40:52;;;;;;;11.77;9.27;;;8.30;99.90;;;;;;5048312;28;20433;-54
2023/01/08 05:43:19;;;;;;;10.23;8.67;;;7.90;99.90;;;;;;5048422;28;20875;-55
2023/01/08 05:45:47;;;;;;;8.10;7.30;;;8.00;99.90;;;;;;5048126;28;20804;-56
2023/01/08 05:48:13;;;;;;;9.00;7.80;;;8.30;99.90;;;;;;5048315;28;20958;-55
2023/01/08 05:50:40;;;;;;;8.83;7.93;;;8.00;99.90;;;;;;5048010;28;20408;-54
2023/01/08 05:53:07;;;;;;;9.63;8.63;;;8.20;99.90;;;;;;5048136;28;20431;-55
2023/01/08 05:55:34;;;;;;;11.73;8.87;;;8.00;99.90;;;;;;5048324;28;20831;-56
2023/01/08 05:58:01;;;;;;;9.67;8.57;;;8.10;99.90;;;;;;5048331;28;20920;-55
2023/01/08 06:00:28;;;;;;;9.63;8.20;;;8.10;99.90;;;;;;5047458;28;20449;-55
2023/01/08 06:02:55;;;;;;;8.73;7.83;;;8.40;99.90;;;;;;5048747;28;20450;-54
2023/01/08 06:05:22;;;;;;;10.17;7.50;;;8.30;99.90;;;;;;5051488;28;20441;-54
2023/01/08 06:07:49;;;;;;;8.43;7.47;;;8.30;99.90;;;;;;5051425;28;20487;-56
2023/01/08 06:10:16;;;;;;;9.40;8.13;;;8.50;99.90;;;;;;5050875;28;20438;-55
2023/01/08 06:12:42;;;;;;;9.97;8.60;;;8.40;99.90;;;;;;5051497;27;20828;-54
2023/01/08 06:15:10;;;;;;;8.10;7.30;;;8.40;99.90;;;;;;5051379;28;20760;-55
2023/01/08 06:17:37;;;;;;;8.70;7.80;;;8.60;99.90;;;;;;5051326;28;20434;-56
2023/01/08 06:20:06;;;;;;;8.80;7.90;;;8.40;99.90;;;;;;5050473;28;20431;-56
2023/01/08 06:22:33;;;;;;;8.30;7.50;;;8.70;99.90;;;;;;5051053;28;20937;-53
2023/01/08 06:24:59;;;;;;;8.10;7.30;;;8.70;99.90;;;;;;5051249;28;20450;-56
2023/01/08 06:27:26;;;;;;;9.80;7.87;;;8.50;99.90;;;;;;5051277;28;20501;-56
2023/01/08 06:29:53;;;;;;;8.60;6.87;;;8.90;99.90;;;;;;5050482;28;20435;-56
2023/01/08 06:32:19;;;;;;;8.37;7.03;;;8.40;99.90;;;;;;5050905;28;20439;-56
2023/01/08 06:34:46;;;;;;;8.20;7.47;;;8.80;99.90;;;;;;5051098;28;20435;-55
2023/01/08 06:37:14;;;;;;;8.20;7.40;;;8.40;99.90;;;;;;5050995;28;20815;-56
2023/01/08 06:39:41;;;;;;;7.50;6.80;;;8.50;99.90;;;;;;5050930;28;20430;-57
2023/01/08 06:42:07;;;;;;;8.40;7.27;;;8.80;99.90;;;;;;5051028;28;20463;-56
2023/01/08 06:44:34;;;;;;;8.13;7.33;;;8.60;99.90;;;;;;5050794;28;20426;-53
2023/01/08 06:47:00;;;;;;;8.00;7.20;;;8.70;99.90;;;;;;5050884;28;20477;-53
2023/01/08 06:49:27;;;;;;;9.77;6.80;;;8.00;99.90;;;;;;5050594;28;20401;-54
2023/01/08 06:51:53;;;;;;;8.23;7.40;;;8.70;99.90;;;;;;5050876;28;20462;-55
2023/01/08 06:54:21;;;;;;;10.83;6.63;;;8.70;99.90;;;;;;5050914;28;20433;-56
2023/01/08 06:56:48;;;;;;;9.83;7.60;;;8.50;99.90;;;;;;5050998;27;20414;-55
2023/01/08 06:59:15;;;;;;;8.80;7.17;;;8.60;99.90;;;;;;5050232;28;20430;-55
2023/01/08 07:01:41;;;;;;;7.70;6.60;;;8.60;99.90;;;;;;5050767;28;20455;-55
2023/01/08 07:04:08;;;;;;;8.17;7.33;;;8.60;99.90;;;;;;5050645;28;20413;-55
2023/01/08 07:06:35;;;;;;;10.00;7.87;;;8.80;99.90;;;;;;5049500;28;20468;-54
2023/01/08 07:09:02;;;;;;;8.53;6.77;;;8.80;99.90;;;;;;5049850;28;20430;-55
2023/01/08 07:11:30;;;;;;;7.93;7.13;;;8.60;99.90;;;;;;5050886;27;20830;-54
2023/01/08 07:13:56;;;;;;;7.93;6.57;;;8.80;99.90;;;;;;5050307;28;20434;-55
2023/01/08 07:16:23;;;;;;;7.87;7.07;;;8.70;99.90;;;;;;5050481;28;20435;-53
2023/01/08 07:18:49;;;;;;;9.63;8.13;;;8.90;99.90;;;;;;5050057;28;20413;-52
2023/01/08 07:21:16;;;;;;;7.50;6.63;;;8.70;99.90;;;;;;5050276;28;20463;-53
2023/01/08 07:23:44;;;;;;;10.00;7.47;;;8.20;99.90;;;;;;5050451;28;20441;-53
2023/01/08 07:26:11;;;;;;;9.50;8.03;;;8.90;99.90;;;;;;5049990;28;20490;-53
2023/01/08 07:28:39;;;;;;;7.27;6.57;;;8.80;99.90;;;;;;5048306;28;20541;-54
2023/01/08 07:31:06;;;;;;;9.13;7.00;;;8.80;99.90;;;;;;5050632;28;20455;-53
2023/01/08 07:33:33;;;;;;;7.90;7.10;;;9.00;99.90;;;;;;5050151;28;20445;-53
2023/01/08 07:35:59;;;;;;;7.77;6.73;;;8.80;99.90;;;;;;5050157;28;20431;-52
2023/01/08 07:38:26;;;;;;;8.80;7.40;;;9.00;99.90;;;;;;5049497;28;20431;-54
2023/01/08 07:40:53;;;;;;;7.17;6.50;;;8.80;99.90;;;;;;5050018;28;20804;-53
2023/01/08 07:43:20;;;;;;;7.77;6.73;;;8.90;99.90;;;;;;5050110;28;20435;-53
2023/01/08 07:45:48;;;;;;;8.00;7.20;;;8.90;99.90;;;;;;5050250;28;20438;-54
2023/01/08 07:48:15;;;;;;;8.30;6.40;;;9.20;99.90;;;;;;5050050;28;20409;-53
2023/01/08 07:50:42;;;;;;;7.73;6.93;;;9.40;99.90;;;;;;5049143;28;20462;-54
2023/01/08 07:53:10;;;;;;;7.70;6.87;;;8.90;99.90;;;;;;5049949;28;20442;-55
2023/01/08 07:55:36;;;;;;;8.50;6.33;;;9.10;99.90;;;;;;5049904;28;20413;-55
2023/01/08 07:58:08;;;;;;;7.10;6.40;;;9.30;99.90;;;;;;5049743;28;20902;-54
2023/01/08 08:00:35;;;;;;;7.20;6.50;;;9.20;99.90;;;;;;5049200;28;20462;-53
2023/01/08 08:03:05;;;;;;;10.17;8.50;;;8.70;99.90;;;;;;5049956;28;20431;-53
2023/01/08 08:05:32;;;;;;;10.17;7.53;;;8.90;99.90;;;;;;5049893;28;20433;-54
2023/01/08 08:07:59;;;;;;;8.80;7.90;;;8.70;99.90;;;;;;5049776;28;20482;-54
2023/01/08 08:10:25;;;;;;;9.53;7.90;;;9.20;99.90;;;;;;5049304;28;20431;-55
2023/01/08 08:12:52;;;;;;;7.30;6.60;;;9.20;99.90;;;;;;5049649;28;20454;-54
2023/01/08 08:15:18;;;;;;;8.93;6.97;;;9.10;99.90;;;;;;5049940;27;20874;-52
2023/01/08 08:17:46;;;;;;;7.27;6.57;;;9.40;99.90;;;;;;5049622;28;20413;-54
2023/01/08 08:20:14;;;;;;;7.53;6.50;;;9.10;99.90;;;;;;5049050;28;20405;-54
2023/01/08 08:22:41;;;;;;;7.53;6.63;;;9.40;99.90;;;;;;5049455;28;20437;-53
2023/01/08 08:25:08;;;;;;;6.13;5.50;;;8.60;99.90;;;;;;5048911;28;20529;-54
2023/01/08 08:27:35;;;;;;;8.43;6.70;;;9.30;99.90;;;;;;5048939;28;20478;-53
2023/01/08 08:30:03;;;;;;;7.57;6.87;;;9.00;99.90;;;;;;5048693;28;20406;-54
2023/01/08 08:32:29;;;;;;;8.10;6.93;;;9.20;99.90;;;;;;5049208;28;20991;-52
2023/01/08 08:34:56;;;;;;;9.20;6.70;;;9.30;99.90;;;;;;5049155;28;20430;-55
2023/01/08 08:37:24;;;;;;;10.10;6.73;;;9.50;99.90;;;;;;5047849;28;20417;-55
2023/01/08 08:39:50;;;;;;;8.00;6.50;;;9.20;99.90;;;;;;5048605;28;20413;-53
2023/01/08 08:42:17;;;;;;;8.80;7.10;;;9.00;99.90;;;;;;5049088;28;20929;-54
2023/01/08 08:44:44;;;;;;;8.10;6.93;;;9.00;99.90;;;;;;5049239;28;20754;-53
2023/01/08 08:47:11;;;;;;;8.17;7.37;;;8.90;99.90;;;;;;5049051;27;20506;-54
2023/01/08 08:49:38;;;;;;;8.30;7.40;;;9.40;99.90;;;;;;5048498;28;20681;-53
2023/01/08 08:52:05;;;;;;;6.43;5.73;;;9.40;99.90;;;;;;5048834;28;20522;-53
2023/01/08 08:54:33;;;;;;;7.77;6.60;;;9.30;99.90;;;;;;5049053;28;20430;-53
2023/01/08 08:57:00;;;;;;;9.00;7.93;;;9.30;99.90;;;;;;5048962;28;20406;-53
2023/01/08 08:59:26;;;;;;;7.10;6.40;;;9.60;99.90;;;;;;5048347;28;20413;-54
2023/01/08 09:01:53;;;;;;;7.50;6.70;;;9.30;99.90;;;;;;5048862;28;20962;-54
2023/01/08 09:04:19;;;;;;;7.77;6.30;;;9.60;99.90;;;;;;5048894;28;20409;-54
2023/01/08 09:06:46;;;;;;;8.67;7.13;;;9.70;99.90;;;;;;5048686;28;20478;-55
2023/01/08 09:09:14;;;;;;;8.63;7.40;;;9.60;99.90;;;;;;5048182;28;20442;-54
2023/01/08 09:11:42;;;;;;;8.87;7.20;;;9.40;99.90;;;;;;5048811;27;20463;-54
2023/01/08 09:14:09;;;;;;;6.90;6.30;;;9.60;99.90;;;;;;5049214;28;20675;-53
2023/01/08 09:16:36;;;;;;;6.63;6.03;;;9.60;99.90;;;;;;5048833;28;20449;-54
2023/01/08 09:19:03;;;;;;;7.30;6.60;;;9.50;99.90;;;;;;5048000;28;20551;-55
2023/01/08 09:21:29;;;;;;;7.53;6.83;;;9.50;99.90;;;;;;5048564;28;20440;-55
2023/01/08 09:23:56;;;;;;;14.90;6.37;;;9.70;99.90;;;;;;5048521;28;20770;-55
2023/01/08 09:26:22;;;;;;;7.67;6.87;;;9.50;99.90;;;;;;5048543;28;20466;-55
2023/01/08 09:28:50;;;;;;;6.93;6.17;;;9.70;99.90;;;;;;5047783;28;20405;-55
2023/01/08 09:31:17;;;;;;;8.03;6.77;;;9.80;99.90;;;;;;5048101;28;20454;-55
2023/01/08 09:33:43;;;;;;;10.07;6.77;;;9.90;99.90;;;;;;5048328;28;20430;-54
2023/01/08 09:36:11;;;;;;;8.47;6.50;;;9.60;99.90;;;;;;5048340;28;20442;-55
2023/01/08 09:38:38;;;;;;;8.30;6.20;;;9.90;99.90;;;;;;5051154;28;20960;-55
2023/01/08 09:41:08;;;;;;;8.43;6.70;;;9.80;99.90;;;;;;5051850;28;20783;-54
2023/01/08 09:43:38;;;;;;;7.40;6.70;;;9.70;99.90;;;;;;5052048;28;20795;-54
2023/01/08 09:46:07;;;;;;;8.03;6.70;;;9.80;99.90;;;;;;5051590;28;20459;-54
2023/01/08 09:48:37;;;;;;;7.10;6.33;;;9.80;99.90;;;;;;5051120;27;20461;-54
2023/01/08 09:51:04;;;;;;;8.50;6.50;;;9.90;99.90;;;;;;5052021;27;20563;-56
2023/01/08 09:53:32;;;;;;;8.47;7.67;;;9.80;99.90;;;;;;5051535;28;20926;-54
2023/01/08 09:56:01;;;;;;;7.30;5.90;;;9.80;99.90;;;;;;5051546;28;20430;-55
2023/01/08 09:58:35;;;;;;;8.73;7.60;;;10.00;99.90;;;;;;5049566;27;20441;-54
2023/01/08 10:01:02;;;;;;;7.03;5.83;;;10.20;99.90;;;;;;5051121;28;20467;-54
2023/01/08 10:03:38;;;;;;;7.63;6.30;;;9.70;99.90;;;;;;5051740;28;20735;-54
2023/01/08 10:06:09;;;;;;;7.07;5.70;;;10.00;99.90;;;;;;5051374;28;20438;-55
2023/01/08 10:08:35;;;;;;;10.90;6.47;;;9.80;99.90;;;;;;5049358;28;21006;-54
2023/01/08 10:11:03;;;;;;;10.00;7.30;;;9.30;99.90;;;;;;5051554;28;20458;-55
2023/01/08 10:13:30;;;;;;;10.80;6.40;;;10.00;99.90;;;;;;5051958;28;20435;-54
2023/01/08 10:15:58;;;;;;;10.27;7.30;;;9.50;99.90;;;;;;5051345;27;20439;-54
2023/01/08 10:18:26;;;;;;;32.03;13.10;;;9.70;99.90;;;;;;5051062;28;20418;-55
2023/01/08 10:20:54;;;;;;;75.97;68.57;;;9.90;99.90;;;;;;5050923;28;20818;-54
2023/01/08 10:23:22;;;;;;;22.37;19.97;;;9.80;99.90;;;;;;5051275;28;20917;-54
2023/01/08 10:25:51;;;;;;;16.90;13.90;;;10.30;99.90;;;;;;5050996;28;20454;-55
2023/01/08 10:28:21;;;;;;;12.70;11.40;;;9.70;99.90;;;;;;5050811;28;21301;-55
2023/01/08 10:30:48;;;;;;;13.37;9.47;;;10.00;99.90;;;;;;5050552;28;20423;-55
2023/01/08 10:33:19;;;;;;;11.47;8.93;;;10.20;99.90;;;;;;5050846;28;20413;-53
2023/01/08 10:35:53;;;;;;;12.73;8.20;;;10.00;99.90;;;;;;5050956;28;20427;-54
2023/01/08 10:38:31;;;;;;;8.10;7.30;;;9.70;99.90;;;;;;5050885;28;20853;-53
2023/01/08 10:41:00;;;;;;;10.00;9.00;;;9.90;99.90;;;;;;5050375;28;20497;-53
2023/01/08 10:43:29;;;;;;;10.53;7.40;;;10.10;99.90;;;;;;5050642;27;20446;-53
2023/01/08 10:45:58;;;;;;;9.10;7.50;;;10.30;99.90;;;;;;5050482;28;20439;-54
2023/01/08 10:48:30;;;;;;;9.07;6.90;;;9.90;99.90;;;;;;5049462;28;20485;-54
2023/01/08 10:51:04;;;;;;;9.37;7.00;;;9.90;99.90;;;;;;5050620;28;20447;-54
2023/01/08 10:53:33;;;;;;;8.67;6.93;;;10.20;99.90;;;;;;5050328;28;20477;-54
2023/01/08 10:56:01;;;;;;;9.37;7.00;;;9.70;99.90;;;;;;5050440;28;20431;-54
2023/01/08 10:58:29;;;;;;;7.90;6.07;;;9.80;99.90;;;;;;5049785;27;20467;-53
2023/01/08 11:01:09;;;;;;;8.53;7.73;;;9.60;99.90;;;;;;5050069;28;20437;-52
2023/01/08 11:03:36;;;;;;;8.30;7.20;;;10.30;99.90;;;;;;5050438;28;20412;-54
2023/01/08 11:06:11;;;;;;;7.90;6.87;;;9.80;99.90;;;;;;5050540;28;20430;-52
2023/01/08 11:08:39;;;;;;;8.67;7.73;;;9.70;99.90;;;;;;5049802;27;20482;-54
2023/01/08 11:11:08;;;;;;;8.50;7.37;;;9.90;99.90;;;;;;5050379;28;20970;-53
2023/01/08 11:13:34;;;;;;;7.70;6.90;;;10.00;99.90;;;;;;5050372;28;20414;-53
2023/01/08 11:16:03;;;;;;;8.20;7.40;;;9.80;99.90;;;;;;5050042;28;20806;-55
2023/01/08 11:18:31;;;;;;;8.70;6.90;;;10.00;99.90;;;;;;5049552;28;20410;-54
2023/01/08 11:21:08;;;;;;;9.47;7.50;;;10.20;99.90;;;;;;5049746;28;20447;-53
2023/01/08 11:23:34;;;;;;;7.43;6.70;;;9.80;99.90;;;;;;5050117;28;20431;-53
2023/01/08 11:26:09;;;;;;;10.67;8.53;;;10.30;99.90;;;;;;5048724;28;21052;-53
2023/01/08 11:28:50;;;;;;;9.53;8.13;;;10.10;99.90;;;;;;5048022;28;20447;-53
2023/01/08 11:31:22;;;;;;;11.43;9.20;;;10.50;99.90;;;;;;5050283;27;20450;-54
2023/01/08 11:33:55;;;;;;;12.43;10.80;;;10.60;99.90;;;;;;5049783;28;20416;-56
2023/01/08 11:36:27;;;;;;;10.07;8.60;;;10.30;99.90;;;;;;5050039;27;20784;-54
2023/01/08 11:38:54;;;;;;;9.07;7.60;;;10.50;99.90;;;;;;5047773;28;20537;-54
2023/01/08 11:41:43;;;;;;;12.13;8.83;;;10.20;99.90;;;;;;5049770;28;20451;-55
2023/01/08 11:44:25;;;;;;;8.27;7.50;;;10.20;99.90;;;;;;5049869;28;20442;-54
2023/01/08 11:47:02;;;;;;;9.33;8.27;;;10.20;99.90;;;;;;5049676;28;20408;-53
2023/01/08 11:49:59;;;;;;;9.97;7.80;;;10.30;99.90;;;;;;5049079;28;20767;-53
2023/01/08 11:52:40;;;;;;;9.80;8.17;;;10.30;99.90;;;;;;5049766;28;20455;-55
2023/01/08 11:55:18;;;;;;;8.63;6.50;;;10.40;99.90;;;;;;5049123;28;20435;-57
2023/01/08 11:58:04;;;;;;;7.47;6.67;;;10.10;99.90;;;;;;5049718;28;20432;-54
2023/01/08 12:00:38;;;;;;;11.77;8.27;;;10.30;99.90;;;;;;5048802;28;20934;-55
2023/01/08 12:03:16;;;;;;;9.93;7.57;;;10.30;99.90;;;;;;5049796;28;20409;-54
2023/01/08 12:05:46;;;;;;;7.50;6.73;;;10.60;99.90;;;;;;5049588;28;20470;-55
2023/01/08 12:08:21;;;;;;;9.70;8.70;;;10.20;99.90;;;;;;5049437;28;20461;-55
2023/01/08 12:10:58;;;;;;;8.70;7.53;;;10.40;99.90;;;;;;5049194;28;20449;-55
2023/01/08 12:13:43;;;;;;;9.67;6.80;;;10.80;99.90;;;;;;5049331;28;20542;-55
2023/01/08 12:16:20;;;;;;;9.90;7.30;;;10.60;99.90;;;;;;5049462;28;20778;-54
2023/01/08 12:19:07;;;;;;;8.93;7.00;;;10.40;99.90;;;;;;5047314;28;20454;-56
2023/01/08 12:21:42;;;;;;;8.37;7.07;;;10.50;99.90;;;;;;5049317;28;20429;-54
2023/01/08 12:24:27;;;;;;;8.60;7.70;;;10.80;99.90;;;;;;5049201;28;20499;-55
2023/01/08 12:27:00;;;;;;;9.03;8.17;;;10.40;99.90;;;;;;5049207;28;20906;-55
2023/01/08 12:29:58;;;;;;;8.00;7.20;;;10.30;99.90;;;;;;5048183;28;20483;-54
2023/01/08 12:32:35;;;;;;;7.93;7.03;;;10.40;99.90;;;;;;5048981;28;20478;-54
2023/01/08 12:35:08;;;;;;;8.30;7.40;;;10.50;99.90;;;;;;5049043;28;20458;-55
2023/01/08 12:37:41;;;;;;;7.33;6.60;;;10.70;99.90;;;;;;5071365;22;20410;-54
2023/01/08 12:40:15;;;;;;;9.20;7.90;;;10.50;99.90;;;;;;5069319;28;20429;-54
2023/01/08 12:42:43;;;;;;;9.10;8.20;;;10.40;99.90;;;;;;5070999;28;20489;-54
2023/01/08 12:45:20;;;;;;;10.47;7.87;;;10.50;99.90;;;;;;5070797;28;20407;-54
2023/01/08 12:47:50;;;;;;;8.23;7.43;;;10.30;99.90;;;;;;5070739;28;20463;-54
2023/01/08 12:50:35;;;;;;;8.87;7.93;;;10.70;99.90;;;;;;5070788;28;20412;-56
2023/01/08 12:53:08;;;;;;;8.20;7.40;;;11.00;99.90;;;;;;5071172;28;20408;-53
2023/01/08 12:55:45;;;;;;;10.53;8.97;;;10.40;99.90;;;;;;5052969;28;20435;-54
2023/01/08 12:58:23;;;;;;;10.00;8.20;;;9.90;99.90;;;;;;5070962;28;20742;-53
2023/01/08 13:01:00;;;;;;;9.73;8.17;;;10.40;99.90;;;;;;5070810;28;20461;-53
2023/01/08 13:03:29;;;;;;;8.43;7.53;;;10.40;99.90;;;;;;5070876;28;20413;-54